YXTW weather

Tamworth Hospital Helipad
Tamworth, New South Wales, Australia

Public forecast

Using degrees Celsius for public forecast. Weather courtesy of forecast.io.

Closest aviation weather report (METAR) to Tamworth Hospital Helipad

Closest report is Tamworth Airport, 4.1 nm (7.6 km) W. Retrieved 2019/12/12 15:30 UTC (5 minutes ago):

YSTW 121530Z AUTO 13008KT 9999 // ////// 22/16 Q1012 RF000/0000

Closest aviation forecast (TAF) to Tamworth Hospital Helipad

Forecast is more than 6 hours old.

Closest forecast is Tamworth Airport, 4.1 nm (7.6 km) W. Retrieved 2019/12/12 06:00 UTC (10 hours ago):

TAF YSTW 120509Z 1206/1300 21013KT 8000 -FU NSC FM121000 12013KT 7000 -FU SCT020 FM121400 16008KT 7000 -FU SCT020 FM121800 09007KT 7000 -SHRA -FU SCT020 BKN030 INTER 1218/1300 5000 SHRA BKN015 PROB30 1209/1300 4000 FU